Detall de PIREP

Printer-friendly versionPDF version

[2013/07/08 17:29:00]
Flight IATA:CT0003
Pilot Number:012
Company ICAO:CAT
Aircraft Type:A320/E
PAX:150
Departing Airport: LICJ
Destination Airport: LIEA
Alternate Airport:LIEO
Online: VATSIM
Route:KAPIL UM871 CAR UM732 SODIO
Flight Level:F280
No Slew and time accel
No pause
Crash detect
Detect pilot in Cockpit between each 30 and 45 minutes
17:29 Zero fuel Weight: 120383 Lbs, Fuel Weight: 13639 Lbs
17:29 VATSIM:LICJ 081650Z 05017KT 9999 FEW020 FEW035TCU 26/21 Q1018
17:29 VATSIM:LIEA 081650Z 29004KT 260V330 CAVOK 27/18 Q1019
17:29 VOICE CATALONIAN
17:31 Parking Brakes off
17:35 Take-off
17:35 Take off Weight: 133279 Lbs
17:35 Wind: 047º @ 017 Knots Heading: 065º
17:35 POS N38º 10´ 47´´ E013º 06´ 11´´
17:35 Gear Up: 169 Knots
17:35 Flaps:3 at 169 Knots
17:36 Flaps:2 at 170 Knots
17:36 Flaps:0 at 185 Knots
17:46 TOC
17:46 Fuel Weight: 9894 Lb
17:50 Wind:306º@022 Knots Heading: 291º Ground Speed: 449 Knots Altitude 28133 ft
18:05 Wind:316º@028 Knots Heading: 330º Ground Speed: 442 Knots Altitude 28143 ft
18:05 TOD
18:05 Fuel Weight: 7718 Lb
18:20 Wind:026º@011 Knots Heading: 333º Ground Speed: 265 Knots Altitude 6338 ft
18:26 Flaps:1 at 195 Knots
18:26 Flaps:3 at 186 Knots
18:26 Gear Down: 167 Knots
18:27 Flaps:4 at 142 Knots
18:27 Flaps:5 at 138 Knots
18:31 TouchDown:Rate -297 ft/min Speed: 127 Knots
18:31 VATSIM:LIEA 081750Z 19003KT 150V210 CAVOK 26/19 Q1019
18:31 Land
18:31 Wind:200º@003 Knots
18:31 Heading: 204º
18:31 Flight Duration: 00:56
18:31 Landing Weight: 125987 Lbs
18:31 POS N40º 37´ 53´´ E008º 17´ 25´´
18:34 Parking brakes on
18:34 Block to Block Duration: 01:03
18:34 Final Fuel: 5381 Lbls
18:34 Spent Fuel: 8258 Lbls
18:34 Flight Length: 319 NM
18:34 TOD Land Length: 115 NM

Exportar CSV

Powered by Drupal - Modified by Danger4k